Time;durP1;ratioP1;P1;durP2;ratioP2;P2;SDS_P1;SDS_P2;PMS_P1;PMS_P2;Temp;Humidity;BMP_temperature;BMP_pressure;BME280_temperature;BME280_humidity;BME280_pressure;Samples;Min_cycle;Max_cycle;Signal;HPM_P1;HPM_P2
2023/12/04 00:00:43;;;;;;;2.30;1.58;;;20.70;52.70;;;;;;5039468;28;20493;-65
2023/12/04 00:03:08;;;;;;;2.42;1.83;;;20.60;52.60;;;;;;5038514;28;20033;-64
2023/12/04 00:05:34;;;;;;;2.78;1.85;;;20.60;52.60;;;;;;5037329;28;20041;-64
2023/12/04 00:08:00;;;;;;;2.58;1.83;;;20.60;52.60;;;;;;5039944;28;20480;-68
2023/12/04 00:10:25;;;;;;;2.97;1.70;;;20.60;52.60;;;;;;5041159;28;20461;-68
2023/12/04 00:12:51;;;;;;;2.63;1.88;;;20.60;52.60;;;;;;5038450;28;20893;-68
2023/12/04 00:15:19;;;;;;;2.53;1.73;;;20.60;52.60;;;;;;5038493;28;20033;-68
2023/12/04 00:17:45;;;;;;;2.40;1.80;;;20.60;52.60;;;;;;5038115;28;20664;-68
2023/12/04 00:20:10;;;;;;;2.42;1.88;;;20.50;53.10;;;;;;5037710;28;20032;-68
2023/12/04 00:22:37;;;;;;;2.90;2.00;;;20.50;52.60;;;;;;5038551;28;20031;-68
2023/12/04 00:25:04;;;;;;;3.05;2.00;;;20.50;52.60;;;;;;5037413;28;20496;-68
2023/12/04 00:27:30;;;;;;;2.67;2.10;;;20.50;52.60;;;;;;5038239;28;20480;-68
2023/12/04 00:29:56;;;;;;;2.88;2.00;;;20.50;52.60;;;;;;5037681;28;20061;-68
2023/12/04 00:32:22;;;;;;;2.20;1.77;;;20.50;52.60;;;;;;5035920;28;20075;-69
2023/12/04 00:34:47;;;;;;;3.08;2.13;;;20.50;52.60;;;;;;5035819;28;20096;-68
2023/12/04 00:37:13;;;;;;;3.30;2.05;;;20.50;52.60;;;;;;5037867;28;20025;-69
2023/12/04 00:39:39;;;;;;;3.40;2.20;;;20.40;52.50;;;;;;5040618;28;20033;-69
2023/12/04 00:42:05;;;;;;;3.58;2.20;;;20.40;52.50;;;;;;5043191;28;20038;-68
2023/12/04 00:44:31;;;;;;;2.65;1.85;;;20.40;52.50;;;;;;5039007;28;20396;-68
2023/12/04 00:46:57;;;;;;;2.88;2.08;;;20.40;52.50;;;;;;5037476;28;20029;-69
2023/12/04 00:49:23;;;;;;;2.92;2.00;;;20.40;52.50;;;;;;5038180;28;20110;-68
2023/12/04 00:51:49;;;;;;;2.78;2.05;;;20.40;52.50;;;;;;5042331;28;20112;-68
2023/12/04 00:54:14;;;;;;;3.17;2.00;;;20.40;52.50;;;;;;5040400;28;20029;-68
2023/12/04 00:56:40;;;;;;;2.63;1.77;;;20.40;52.50;;;;;;5041609;28;20032;-69
2023/12/04 00:59:07;;;;;;;2.53;1.92;;;20.40;52.50;;;;;;5040318;28;20461;-69
2023/12/04 01:01:33;;;;;;;2.60;1.95;;;20.40;52.50;;;;;;5043071;28;20039;-68
2023/12/04 01:03:59;;;;;;;2.60;1.90;;;20.30;52.50;;;;;;5042087;28;20021;-68
2023/12/04 01:06:25;;;;;;;2.92;1.90;;;20.30;52.50;;;;;;5040663;28;20029;-69
2023/12/04 01:08:52;;;;;;;2.83;2.03;;;20.30;52.50;;;;;;5041816;28;20029;-64
2023/12/04 01:11:19;;;;;;;2.90;2.10;;;20.30;52.50;;;;;;5039211;28;20048;-64
2023/12/04 01:13:45;;;;;;;3.03;1.95;;;20.30;52.60;;;;;;5043866;28;20024;-63
2023/12/04 01:16:10;;;;;;;3.55;2.00;;;20.30;52.50;;;;;;5040388;28;20033;-64
2023/12/04 01:18:36;;;;;;;2.50;1.90;;;20.30;52.60;;;;;;5041309;28;20047;-64
2023/12/04 01:21:02;;;;;;;2.90;1.90;;;20.30;52.60;;;;;;5037817;28;20037;-64
2023/12/04 01:23:28;;;;;;;2.35;1.95;;;20.20;52.50;;;;;;5041765;28;20029;-64
2023/12/04 01:25:53;;;;;;;2.30;1.77;;;20.30;52.60;;;;;;5041750;28;20021;-64
2023/12/04 01:28:19;;;;;;;3.08;2.10;;;20.30;52.60;;;;;;5041092;28;20033;-64
2023/12/04 01:30:44;;;;;;;2.55;1.88;;;20.20;52.50;;;;;;5042525;28;20086;-64
2023/12/04 01:33:10;;;;;;;2.92;2.00;;;20.20;52.60;;;;;;5040683;28;20029;-64
2023/12/04 01:35:36;;;;;;;2.40;1.90;;;20.20;52.60;;;;;;5039232;28;20033;-64
2023/12/04 01:38:01;;;;;;;2.88;1.90;;;20.20;52.50;;;;;;5042755;28;20112;-67
2023/12/04 01:40:27;;;;;;;2.60;1.90;;;20.20;52.60;;;;;;5041268;28;20817;-68
2023/12/04 01:42:53;;;;;;;2.60;1.90;;;20.20;52.60;;;;;;5043549;28;20033;-68
2023/12/04 01:45:19;;;;;;;2.67;2.05;;;20.10;52.50;;;;;;5044161;28;20030;-68
2023/12/04 01:47:45;;;;;;;2.40;1.90;;;20.10;52.50;;;;;;5038340;28;20534;-68
2023/12/04 01:50:13;;;;;;;3.00;2.00;;;20.10;53.10;;;;;;5037888;28;20034;-68
2023/12/04 01:52:40;;;;;;;2.92;1.90;;;20.10;52.50;;;;;;5043131;28;20120;-68
2023/12/04 01:55:08;;;;;;;2.85;1.80;;;20.10;52.50;;;;;;5040145;28;20034;-68
2023/12/04 01:57:34;;;;;;;2.45;1.83;;;20.10;52.60;;;;;;5043181;28;20028;-68
2023/12/04 02:00:00;;;;;;;2.50;1.70;;;20.10;52.60;;;;;;5039172;28;20618;-67
2023/12/04 02:02:28;;;;;;;2.75;2.00;;;20.10;52.60;;;;;;5038619;28;20029;-68
2023/12/04 02:04:56;;;;;;;3.10;1.73;;;20.00;52.60;;;;;;5040841;28;20025;-68
2023/12/04 02:07:22;;;;;;;3.25;2.10;;;20.10;52.70;;;;;;5040688;28;20038;-68
2023/12/04 02:09:48;;;;;;;2.90;1.70;;;20.00;52.60;;;;;;5037734;28;20029;-68
2023/12/04 02:12:13;;;;;;;2.72;1.70;;;20.00;52.60;;;;;;5038812;28;20542;-67
2023/12/04 02:14:39;;;;;;;2.75;1.92;;;20.00;52.60;;;;;;5037528;28;20162;-68
2023/12/04 02:17:07;;;;;;;2.40;1.70;;;20.00;52.60;;;;;;5073649;28;20034;-67
2023/12/04 02:19:33;;;;;;;2.58;1.75;;;20.00;52.60;;;;;;5072682;28;20433;-68
2023/12/04 02:21:59;;;;;;;2.70;1.90;;;20.00;52.70;;;;;;5038085;28;20086;-67
2023/12/04 02:24:25;;;;;;;2.50;1.70;;;20.00;52.70;;;;;;5039756;28;20048;-67
2023/12/04 02:26:58;;;;;;;2.42;1.80;;;19.90;52.70;;;;;;5041609;28;20033;-67
2023/12/04 02:29:32;;;;;;;2.30;1.52;;;19.90;52.70;;;;;;5037425;28;20572;-68
2023/12/04 02:32:00;;;;;;;2.40;1.80;;;19.90;52.80;;;;;;5055428;28;20037;-67
2023/12/04 02:34:28;;;;;;;2.25;1.63;;;19.90;52.80;;;;;;5040068;28;20029;-68
2023/12/04 02:36:54;;;;;;;2.47;1.70;;;19.90;52.80;;;;;;5037705;28;20067;-68
2023/12/04 02:39:20;;;;;;;2.20;1.60;;;19.90;52.90;;;;;;5041720;28;20096;-68
2023/12/04 02:41:46;;;;;;;2.45;1.70;;;19.90;52.90;;;;;;5041062;28;20477;-68
2023/12/04 02:44:11;;;;;;;2.28;1.70;;;19.90;52.90;;;;;;5041435;28;20048;-67
2023/12/04 02:46:38;;;;;;;2.40;1.60;;;19.80;52.90;;;;;;5039274;28;20140;-68
2023/12/04 02:49:03;;;;;;;2.05;1.45;;;19.80;52.90;;;;;;5036595;28;20413;-68
2023/12/04 02:51:29;;;;;;;2.15;1.60;;;19.80;53.00;;;;;;5037783;28;20033;-68
2023/12/04 02:53:54;;;;;;;2.40;1.70;;;19.80;53.00;;;;;;5055575;28;20039;-68
2023/12/04 02:56:20;;;;;;;2.17;1.45;;;19.80;53.00;;;;;;5039868;28;20401;-68
2023/12/04 02:58:45;;;;;;;1.90;1.40;;;19.80;53.00;;;;;;5037509;28;20138;-67
2023/12/04 03:01:11;;;;;;;2.25;1.50;;;19.70;53.10;;;;;;5038734;28;20587;-68
2023/12/04 03:03:37;;;;;;;1.90;1.42;;;19.70;53.10;;;;;;5040091;28;20029;-67
2023/12/04 03:06:02;;;;;;;2.30;1.60;;;19.70;53.60;;;;;;5036830;28;20028;-68
2023/12/04 03:08:28;;;;;;;2.05;1.50;;;19.70;53.10;;;;;;5037534;28;20374;-68
2023/12/04 03:10:53;;;;;;;2.17;1.50;;;19.70;53.20;;;;;;5039708;28;20397;-67
2023/12/04 03:13:19;;;;;;;2.22;1.60;;;19.70;53.20;;;;;;5038937;28;20029;-67
2023/12/04 03:15:45;;;;;;;2.40;1.70;;;19.70;53.20;;;;;;5042500;28;20500;-67
2023/12/04 03:18:10;;;;;;;1.50;1.30;;;19.70;53.20;;;;;;5037708;28;20045;-67
2023/12/04 03:20:36;;;;;;;1.80;1.40;;;19.70;53.30;;;;;;5038251;28;20030;-67
2023/12/04 03:23:01;;;;;;;2.25;1.60;;;19.70;53.30;;;;;;5040714;28;20033;-68
2023/12/04 03:25:27;;;;;;;2.17;1.52;;;19.70;53.30;;;;;;5037349;28;20054;-67
2023/12/04 03:27:52;;;;;;;2.38;1.70;;;19.60;53.30;;;;;;5039334;28;20040;-67
2023/12/04 03:30:20;;;;;;;2.25;1.50;;;19.60;53.30;;;;;;5039540;28;20132;-68
2023/12/04 03:32:45;;;;;;;2.40;1.60;;;19.60;53.30;;;;;;5039405;28;20083;-68
2023/12/04 03:35:11;;;;;;;1.88;1.38;;;19.60;53.30;;;;;;5038150;28;20030;-68
2023/12/04 03:37:37;;;;;;;1.95;1.42;;;19.60;53.30;;;;;;5036807;28;20039;-68
2023/12/04 03:40:02;;;;;;;2.08;1.50;;;19.60;53.40;;;;;;5038643;28;20056;-67
2023/12/04 03:42:28;;;;;;;2.15;1.50;;;19.60;53.30;;;;;;5038724;28;20502;-68
2023/12/04 03:44:54;;;;;;;2.40;1.50;;;19.50;53.30;;;;;;5038132;28;20025;-68
2023/12/04 03:47:19;;;;;;;1.67;1.20;;;19.60;53.40;;;;;;5037096;28;20028;-68
2023/12/04 03:49:45;;;;;;;1.88;1.30;;;19.60;53.40;;;;;;5038698;28;20033;-68
2023/12/04 03:52:11;;;;;;;1.98;1.45;;;19.60;53.40;;;;;;5037252;28;20033;-67
2023/12/04 03:54:36;;;;;;;2.03;1.50;;;19.60;53.40;;;;;;5039958;28;20025;-68
2023/12/04 03:57:02;;;;;;;1.58;1.30;;;19.50;53.30;;;;;;5038645;28;20048;-67
2023/12/04 03:59:27;;;;;;;1.90;1.58;;;19.50;53.40;;;;;;5039326;28;20392;-67
2023/12/04 04:01:53;;;;;;;2.50;1.58;;;19.50;53.40;;;;;;5039572;28;20057;-67
2023/12/04 04:04:18;;;;;;;2.15;1.55;;;19.50;53.40;;;;;;5039883;28;20579;-67
2023/12/04 04:06:44;;;;;;;2.17;1.40;;;19.50;53.40;;;;;;5036496;28;20471;-68
2023/12/04 04:09:09;;;;;;;2.03;1.50;;;19.50;53.40;;;;;;5040323;28;20086;-68
2023/12/04 04:11:35;;;;;;;1.85;1.40;;;19.50;53.40;;;;;;5038444;28;20043;-67
2023/12/04 04:14:01;;;;;;;1.98;1.50;;;19.50;53.40;;;;;;5054387;28;20021;-67
2023/12/04 04:16:26;;;;;;;1.90;1.40;;;19.50;53.40;;;;;;5039015;28;20025;-67
2023/12/04 04:18:52;;;;;;;2.20;1.48;;;19.50;53.40;;;;;;5038442;28;20032;-67
2023/12/04 04:21:17;;;;;;;1.75;1.40;;;19.50;53.40;;;;;;5037190;28;20057;-67
2023/12/04 04:23:43;;;;;;;2.17;1.50;;;19.50;53.40;;;;;;5039495;28;20038;-67
2023/12/04 04:26:08;;;;;;;2.28;1.60;;;19.40;53.30;;;;;;5042166;28;20030;-67
2023/12/04 04:28:34;;;;;;;2.05;1.35;;;19.50;53.40;;;;;;5044089;28;20466;-68
2023/12/04 04:31:00;;;;;;;2.00;1.50;;;19.50;53.40;;;;;;5043378;28;20083;-68
2023/12/04 04:33:25;;;;;;;2.10;1.50;;;19.50;53.40;;;;;;5049142;28;20504;-67
2023/12/04 04:35:51;;;;;;;2.00;1.45;;;19.50;53.40;;;;;;5045382;28;20021;-67
2023/12/04 04:38:16;;;;;;;1.95;1.38;;;19.40;53.40;;;;;;5040690;28;20036;-64
2023/12/04 04:40:43;;;;;;;1.98;1.50;;;19.40;53.40;;;;;;5043518;28;20548;-62
2023/12/04 04:43:10;;;;;;;1.88;1.45;;;19.40;53.40;;;;;;5041680;28;20345;-64
2023/12/04 04:45:35;;;;;;;2.33;1.70;;;19.40;53.90;;;;;;5041151;28;20040;-63
2023/12/04 04:48:01;;;;;;;2.40;1.60;;;19.40;53.90;;;;;;5041066;28;20021;-68
2023/12/04 04:50:27;;;;;;;2.45;1.73;;;19.40;53.40;;;;;;5041788;28;20036;-68
2023/12/04 04:52:52;;;;;;;1.90;1.40;;;19.40;53.40;;;;;;5040586;28;20078;-68
2023/12/04 04:55:18;;;;;;;2.17;1.50;;;19.40;53.40;;;;;;5040624;28;20020;-68
2023/12/04 04:57:44;;;;;;;2.30;1.67;;;19.40;53.40;;;;;;5040362;28;20465;-68
2023/12/04 05:00:10;;;;;;;2.08;1.58;;;19.40;53.40;;;;;;5041083;28;20057;-68
2023/12/04 05:02:36;;;;;;;1.75;1.40;;;19.40;53.40;;;;;;5042490;28;20078;-69
2023/12/04 05:05:03;;;;;;;1.98;1.50;;;19.40;53.50;;;;;;5042249;28;20357;-68
2023/12/04 05:07:29;;;;;;;2.58;1.60;;;19.40;53.40;;;;;;5039656;28;20036;-68
2023/12/04 05:09:54;;;;;;;1.85;1.38;;;19.40;53.40;;;;;;5042361;28;20648;-68
2023/12/04 05:12:20;;;;;;;2.40;1.83;;;19.40;53.40;;;;;;5039898;28;20045;-67
2023/12/04 05:14:45;;;;;;;2.00;1.50;;;19.40;53.40;;;;;;5041063;28;20025;-68
2023/12/04 05:17:11;;;;;;;1.95;1.50;;;19.40;53.50;;;;;;5042022;28;20025;-68
2023/12/04 05:19:37;;;;;;;1.90;1.50;;;19.40;53.50;;;;;;5040435;28;20060;-67
2023/12/04 05:22:03;;;;;;;2.30;1.52;;;19.40;53.50;;;;;;5040651;28;20028;-67
2023/12/04 05:24:28;;;;;;;2.00;1.60;;;19.40;53.50;;;;;;5040223;28;20369;-67
2023/12/04 05:26:54;;;;;;;2.10;1.50;;;19.40;53.50;;;;;;5038834;28;20025;-67
2023/12/04 05:29:19;;;;;;;2.08;1.40;;;19.40;53.60;;;;;;5040227;28;20481;-67
2023/12/04 05:31:45;;;;;;;2.20;1.60;;;19.40;53.60;;;;;;5041890;28;20037;-68
2023/12/04 05:34:11;;;;;;;1.95;1.45;;;19.40;53.60;;;;;;5040524;28;20607;-68
2023/12/04 05:36:36;;;;;;;2.17;1.50;;;19.40;53.60;;;;;;5038098;28;20021;-67
2023/12/04 05:39:02;;;;;;;1.88;1.40;;;19.40;53.60;;;;;;5041559;28;20473;-68
2023/12/04 05:41:28;;;;;;;2.10;1.60;;;19.40;53.70;;;;;;5041784;28;20389;-68
2023/12/04 05:43:54;;;;;;;1.90;1.40;;;19.40;53.70;;;;;;5038596;28;20030;-68
2023/12/04 05:46:19;;;;;;;1.88;1.42;;;19.40;53.70;;;;;;5037780;28;20123;-69
2023/12/04 05:48:45;;;;;;;2.30;1.63;;;19.40;53.70;;;;;;5040902;28;20029;-69
2023/12/04 05:51:11;;;;;;;1.92;1.50;;;19.40;53.70;;;;;;5042211;28;20045;-69
2023/12/04 05:53:37;;;;;;;1.83;1.45;;;19.40;53.80;;;;;;5038190;28;20026;-69
2023/12/04 05:56:04;;;;;;;2.00;1.52;;;19.40;53.80;;;;;;5040271;28;20032;-69
2023/12/04 05:58:30;;;;;;;2.28;1.65;;;19.40;53.80;;;;;;5039467;28;20031;-68
2023/12/04 06:00:55;;;;;;;2.05;1.38;;;19.40;53.80;;;;;;5040359;28;20547;-68
2023/12/04 06:03:21;;;;;;;1.80;1.30;;;19.40;53.80;;;;;;5039796;28;20025;-68
2023/12/04 06:05:47;;;;;;;2.00;1.50;;;19.40;53.80;;;;;;5037614;28;20436;-68
2023/12/04 06:08:12;;;;;;;2.00;1.50;;;19.40;53.80;;;;;;5037268;28;20076;-68
2023/12/04 06:10:38;;;;;;;2.13;1.50;;;19.40;53.80;;;;;;5042306;28;20080;-68
2023/12/04 06:13:03;;;;;;;1.92;1.40;;;19.40;53.90;;;;;;5037613;28;20072;-68
2023/12/04 06:15:29;;;;;;;1.70;1.30;;;19.40;53.90;;;;;;5037644;28;20029;-68
2023/12/04 06:17:55;;;;;;;2.13;1.40;;;19.40;53.90;;;;;;5041403;28;20056;-68
2023/12/04 06:20:20;;;;;;;1.92;1.40;;;19.30;53.80;;;;;;5041318;28;20025;-69
2023/12/04 06:22:46;;;;;;;3.00;1.40;;;19.40;54.00;;;;;;5039274;28;20558;-69
2023/12/04 06:25:12;;;;;;;2.67;1.60;;;19.40;54.00;;;;;;5041866;28;20435;-69
2023/12/04 06:27:38;;;;;;;1.95;1.35;;;19.30;53.90;;;;;;5042115;28;20082;-69
2023/12/04 06:30:06;;;;;;;1.98;1.40;;;19.30;53.90;;;;;;5043553;28;20389;-69
2023/12/04 06:32:32;;;;;;;1.75;1.30;;;19.40;54.00;;;;;;5063338;28;20061;-68
2023/12/04 06:34:58;;;;;;;1.92;1.35;;;19.30;53.90;;;;;;5040644;28;20029;-69
2023/12/04 06:37:24;;;;;;;2.25;1.55;;;19.30;53.90;;;;;;5037457;28;20024;-68
2023/12/04 06:39:52;;;;;;;2.65;1.70;;;19.30;54.70;;;;;;5042508;28;20029;-69
2023/12/04 06:42:18;;;;;;;2.38;1.60;;;19.40;55.00;;;;;;5042091;28;20087;-69
2023/12/04 06:44:44;;;;;;;2.53;1.50;;;19.50;56.00;;;;;;5039713;28;20025;-69
2023/12/04 06:47:12;;;;;;;2.25;1.60;;;19.60;56.00;;;;;;5041644;28;20063;-69
2023/12/04 06:49:38;;;;;;;2.78;1.80;;;19.80;55.80;;;;;;5044697;28;20037;-69
2023/12/04 06:52:04;;;;;;;2.85;1.80;;;20.00;55.00;;;;;;5042728;28;20148;-70
2023/12/04 06:54:29;;;;;;;3.00;1.88;;;20.10;55.20;;;;;;5042567;28;20044;-69
2023/12/04 06:56:56;;;;;;;2.83;1.90;;;20.20;54.50;;;;;;5039407;28;20411;-69
2023/12/04 06:59:21;;;;;;;3.30;1.90;;;20.30;54.10;;;;;;5044302;28;20025;-69
2023/12/04 07:01:47;;;;;;;2.65;1.67;;;20.40;54.00;;;;;;5042504;28;20025;-69
2023/12/04 07:04:13;;;;;;;2.70;1.70;;;20.50;53.90;;;;;;5040679;28;20056;-69
2023/12/04 07:06:39;;;;;;;3.30;2.00;;;20.60;53.90;;;;;;5049356;28;20036;-69
2023/12/04 07:09:07;;;;;;;3.03;1.90;;;20.70;54.60;;;;;;5050744;28;20033;-68
2023/12/04 07:11:33;;;;;;;2.63;1.90;;;20.80;53.50;;;;;;5045720;28;20366;-68
2023/12/04 07:13:59;;;;;;;3.05;2.00;;;20.90;53.20;;;;;;5046987;28;20018;-67
2023/12/04 07:16:25;;;;;;;2.65;1.83;;;21.00;53.20;;;;;;5047851;28;20065;-68
2023/12/04 07:18:50;;;;;;;3.63;2.08;;;21.20;53.00;;;;;;5049928;28;20056;-68
2023/12/04 07:21:16;;;;;;;2.58;2.00;;;21.20;52.60;;;;;;5048893;28;20041;-68
2023/12/04 07:23:41;;;;;;;3.00;1.98;;;21.30;52.40;;;;;;5049434;28;20089;-67
2023/12/04 07:26:07;;;;;;;2.80;1.90;;;21.40;52.20;;;;;;5049136;28;20037;-67
2023/12/04 07:28:33;;;;;;;2.90;1.90;;;21.50;52.20;;;;;;5041358;28;20500;-68
2023/12/04 07:31:03;;;;;;;2.72;1.85;;;21.60;51.80;;;;;;5039252;28;20033;-68
2023/12/04 07:33:29;;;;;;;2.67;1.85;;;21.70;51.40;;;;;;5034581;28;20025;-68
2023/12/04 07:35:54;;;;;;;3.05;1.77;;;21.90;51.30;;;;;;5039099;28;20400;-67
2023/12/04 07:38:20;;;;;;;3.05;1.58;;;22.00;51.10;;;;;;5038238;28;20025;-68
2023/12/04 07:40:46;;;;;;;2.60;1.63;;;22.00;51.20;;;;;;5038792;28;20025;-67
2023/12/04 07:43:14;;;;;;;2.80;1.63;;;22.00;51.20;;;;;;5038494;28;20383;-67
2023/12/04 07:45:40;;;;;;;2.83;1.92;;;22.00;50.70;;;;;;5039808;28;20031;-67
2023/12/04 07:48:06;;;;;;;3.70;1.92;;;22.00;50.40;;;;;;5037537;28;20130;-67
2023/12/04 07:50:32;;;;;;;2.40;1.55;;;22.00;50.40;;;;;;5038415;28;20117;-67
2023/12/04 07:52:57;;;;;;;2.53;1.60;;;21.90;50.30;;;;;;5037981;28;20035;-68
2023/12/04 07:55:23;;;;;;;2.42;1.60;;;21.90;50.50;;;;;;5040794;28;20207;-68
2023/12/04 07:57:50;;;;;;;2.60;1.55;;;22.00;51.10;;;;;;5039534;28;20393;-67
2023/12/04 08:00:17;;;;;;;2.47;1.50;;;22.20;51.10;;;;;;5038800;28;20021;-67
2023/12/04 08:02:44;;;;;;;2.80;1.55;;;22.40;50.40;;;;;;5053065;28;20207;-68
2023/12/04 08:05:10;;;;;;;2.30;1.50;;;22.50;50.00;;;;;;5037879;28;20056;-68
2023/12/04 08:07:36;;;;;;;2.75;1.30;;;22.60;50.40;;;;;;5038799;28;20033;-67
2023/12/04 08:10:01;;;;;;;2.20;1.38;;;22.50;50.60;;;;;;5036337;28;20400;-65
2023/12/04 08:12:27;;;;;;;1.80;1.30;;;22.40;50.70;;;;;;5038963;28;20155;-63
2023/12/04 08:14:53;;;;;;;2.00;1.30;;;22.40;50.90;;;;;;5039763;28;20025;-65
2023/12/04 08:17:18;;;;;;;2.13;1.30;;;22.30;51.20;;;;;;5036960;28;20104;-63
2023/12/04 08:19:44;;;;;;;1.50;1.08;;;22.30;51.80;;;;;;5036898;28;20035;-68
2023/12/04 08:22:10;;;;;;;3.83;1.80;;;22.30;51.60;;;;;;5039847;28;20033;-68
2023/12/04 08:24:35;;;;;;;2.88;1.83;;;22.40;51.40;;;;;;5038991;28;20587;-68
2023/12/04 08:27:01;;;;;;;1.73;1.20;;;22.40;51.30;;;;;;5037903;28;20029;-68
2023/12/04 08:29:27;;;;;;;1.65;1.20;;;22.50;51.30;;;;;;5035577;28;20477;-68
2023/12/04 08:31:52;;;;;;;2.30;1.27;;;22.50;51.70;;;;;;5040149;28;20136;-68
2023/12/04 08:34:18;;;;;;;1.58;1.13;;;22.50;51.70;;;;;;5039566;28;20025;-68
2023/12/04 08:36:43;;;;;;;1.77;1.20;;;22.50;52.10;;;;;;5038166;28;20554;-68
2023/12/04 08:39:09;;;;;;;1.65;1.30;;;22.40;52.40;;;;;;5037112;28;20092;-64
2023/12/04 08:41:35;;;;;;;2.08;1.50;;;22.40;52.20;;;;;;5037730;28;20442;-65
2023/12/04 08:44:00;;;;;;;3.35;1.77;;;22.40;50.80;;;;;;5037056;28;20021;-65
2023/12/04 08:46:26;;;;;;;3.38;1.75;;;22.50;49.70;;;;;;5037838;28;20025;-64
2023/12/04 08:48:51;;;;;;;2.70;1.90;;;22.60;49.50;;;;;;5037039;28;20029;-65
2023/12/04 08:51:17;;;;;;;2.58;1.70;;;22.60;49.30;;;;;;5038029;28;20247;-64
2023/12/04 08:53:43;;;;;;;3.70;1.90;;;22.50;49.30;;;;;;5037385;28;20033;-64
2023/12/04 08:56:10;;;;;;;3.22;2.10;;;22.50;49.20;;;;;;5038631;28;20094;-65
2023/12/04 08:58:36;;;;;;;2.90;1.90;;;22.50;49.30;;;;;;5039163;28;20661;-65
2023/12/04 09:01:03;;;;;;;2.47;1.70;;;22.40;49.30;;;;;;5038135;28;20469;-64
2023/12/04 09:03:30;;;;;;;2.83;1.90;;;22.40;49.40;;;;;;5037938;28;20021;-65
2023/12/04 09:05:57;;;;;;;2.80;1.70;;;22.50;49.50;;;;;;5039664;28;20037;-64
2023/12/04 09:08:25;;;;;;;3.40;2.00;;;22.50;49.50;;;;;;5037922;28;20053;-64
2023/12/04 09:10:51;;;;;;;2.40;1.70;;;22.40;49.50;;;;;;5038014;28;20400;-65
2023/12/04 09:13:16;;;;;;;3.90;1.90;;;22.40;49.50;;;;;;5041565;28;20033;-65
2023/12/04 09:15:42;;;;;;;2.67;1.80;;;22.40;49.60;;;;;;5041359;28;20104;-65
2023/12/04 09:18:08;;;;;;;3.47;1.95;;;22.30;49.60;;;;;;5041403;28;20030;-64
2023/12/04 09:20:34;;;;;;;2.50;1.67;;;22.30;49.50;;;;;;5041218;28;20036;-63
2023/12/04 09:22:59;;;;;;;3.20;1.73;;;22.40;49.80;;;;;;5041157;28;20041;-65
2023/12/04 09:25:25;;;;;;;2.97;1.60;;;22.40;49.70;;;;;;5040046;28;20072;-64
2023/12/04 09:27:51;;;;;;;2.33;1.73;;;22.50;49.70;;;;;;5043029;28;20357;-64
2023/12/04 09:30:17;;;;;;;3.00;1.98;;;22.50;49.50;;;;;;5041258;28;20040;-69
2023/12/04 09:32:43;;;;;;;3.13;2.08;;;22.60;49.40;;;;;;5041085;28;20032;-69
2023/12/04 09:35:09;;;;;;;2.60;1.80;;;22.70;49.30;;;;;;5039708;28;20029;-69
2023/12/04 09:37:34;;;;;;;2.40;1.65;;;22.70;49.60;;;;;;5041595;28;20025;-69
2023/12/04 09:40:00;;;;;;;2.22;1.55;;;22.80;50.10;;;;;;5038618;28;20026;-69
2023/12/04 09:42:26;;;;;;;2.33;1.50;;;22.90;50.30;;;;;;5040110;28;20474;-69
2023/12/04 09:44:53;;;;;;;2.30;1.50;;;23.00;50.40;;;;;;5040930;28;20032;-69
2023/12/04 09:47:21;;;;;;;2.50;1.60;;;23.20;50.40;;;;;;5042137;28;20075;-69
2023/12/04 09:49:48;;;;;;;2.17;1.20;;;23.30;50.40;;;;;;5040463;28;20071;-68
2023/12/04 09:52:14;;;;;;;2.15;1.40;;;23.40;50.50;;;;;;5038913;28;20025;-68
2023/12/04 09:54:41;;;;;;;1.92;1.40;;;23.50;50.70;;;;;;5039416;28;20083;-68
2023/12/04 09:57:06;;;;;;;2.40;1.20;;;23.70;51.10;;;;;;5040859;28;20466;-68
2023/12/04 09:59:32;;;;;;;2.08;1.20;;;23.80;50.50;;;;;;5042210;28;20118;-68
2023/12/04 10:01:58;;;;;;;1.58;1.20;;;24.00;50.40;;;;;;5040815;28;20025;-68
2023/12/04 10:04:25;;;;;;;1.40;1.10;;;24.20;50.20;;;;;;5039966;28;20017;-68
2023/12/04 10:06:54;;;;;;;2.03;1.10;;;24.40;50.30;;;;;;5041719;28;20029;-68
2023/12/04 10:09:22;;;;;;;1.23;1.10;;;24.50;50.10;;;;;;5038523;28;20504;-68
2023/12/04 10:11:50;;;;;;;2.10;1.20;;;24.60;50.20;;;;;;5039825;28;20083;-67
2023/12/04 10:14:20;;;;;;;1.95;1.20;;;24.70;50.10;;;;;;5041298;28;20444;-68
2023/12/04 10:16:46;;;;;;;2.08;1.38;;;24.80;50.00;;;;;;5040067;28;20021;-68
2023/12/04 10:19:31;;;;;;;2.00;1.00;;;25.00;50.00;;;;;;5041251;28;20072;-68
2023/12/04 10:21:59;;;;;;;1.50;1.10;;;25.10;50.00;;;;;;5038746;28;20028;-68
2023/12/04 10:24:37;;;;;;;1.52;1.20;;;25.20;50.00;;;;;;5039034;28;20017;-68
2023/12/04 10:27:14;;;;;;;1.60;1.10;;;25.40;49.90;;;;;;5038817;28;20373;-68
2023/12/04 10:29:45;;;;;;;1.58;1.02;;;25.40;49.80;;;;;;5038216;28;20488;-69
2023/12/04 10:32:11;;;;;;;1.23;1.00;;;25.60;49.70;;;;;;5038838;28;20103;-69
2023/12/04 10:34:37;;;;;;;1.77;1.00;;;25.80;49.40;;;;;;5041069;28;20063;-69
2023/12/04 10:37:04;;;;;;;1.60;1.00;;;25.90;49.20;;;;;;5040461;28;20060;-69
2023/12/04 10:39:30;;;;;;;1.17;1.00;;;26.10;49.10;;;;;;5037862;28;20100;-66
2023/12/04 10:42:03;;;;;;;1.48;0.95;;;26.20;48.80;;;;;;5039296;28;20021;-63
2023/12/04 10:44:31;;;;;;;1.10;0.90;;;26.40;48.80;;;;;;5038192;28;20075;-65
2023/12/04 10:46:58;;;;;;;1.75;0.90;;;26.30;48.70;;;;;;5040936;28;20029;-63
2023/12/04 10:49:27;;;;;;;1.23;0.90;;;26.20;49.10;;;;;;5039925;28;20041;-63
2023/12/04 10:51:57;;;;;;;0.80;0.80;;;25.90;49.30;;;;;;5038181;28;20021;-64
2023/12/04 10:54:23;;;;;;;1.10;0.90;;;25.80;49.60;;;;;;5037452;28;20021;-66
2023/12/04 10:56:52;;;;;;;1.45;1.00;;;25.70;49.70;;;;;;5041652;28;20037;-64
2023/12/04 10:59:25;;;;;;;0.90;0.80;;;25.50;49.70;;;;;;5039883;28;20896;-67
2023/12/04 11:01:54;;;;;;;0.95;0.80;;;25.50;49.90;;;;;;5040854;28;20033;-67
2023/12/04 11:04:23;;;;;;;1.30;1.00;;;25.40;50.10;;;;;;5039606;28;20373;-68
2023/12/04 11:06:52;;;;;;;1.27;1.00;;;25.30;50.10;;;;;;5040627;28;20109;-67
2023/12/04 11:09:18;;;;;;;1.35;0.90;;;25.30;50.20;;;;;;5044813;28;20120;-68
2023/12/04 11:11:48;;;;;;;0.93;0.80;;;25.30;50.50;;;;;;5038912;28;20025;-68
2023/12/04 11:14:21;;;;;;;1.02;0.88;;;25.20;50.70;;;;;;5039706;28;20567;-68
2023/12/04 11:16:54;;;;;;;1.60;1.00;;;25.20;50.80;;;;;;5039912;28;20033;-68
2023/12/04 11:19:31;;;;;;;1.10;0.80;;;25.20;50.90;;;;;;5038529;28;20029;-67
2023/12/04 11:21:58;;;;;;;1.65;1.20;;;25.20;51.00;;;;;;5038244;28;20036;-67
2023/12/04 11:24:24;;;;;;;0.90;0.80;;;25.20;51.10;;;;;;5037797;28;20017;-68
2023/12/04 11:26:51;;;;;;;0.90;0.80;;;25.10;51.70;;;;;;5070781;28;20022;-68
2023/12/04 11:29:18;;;;;;;1.08;0.90;;;25.10;51.50;;;;;;5037981;28;20036;-67
2023/12/04 11:31:43;;;;;;;1.00;0.90;;;25.10;51.50;;;;;;5040179;28;20028;-67
2023/12/04 11:34:09;;;;;;;0.93;0.80;;;25.10;51.50;;;;;;5037923;28;20033;-67
2023/12/04 11:36:36;;;;;;;1.17;0.90;;;25.10;51.50;;;;;;5039200;28;20025;-67
2023/12/04 11:39:02;;;;;;;0.80;0.75;;;25.10;51.50;;;;;;5039663;28;20025;-69
2023/12/04 11:41:30;;;;;;;0.80;0.80;;;25.00;51.50;;;;;;5037324;28;20030;-69
2023/12/04 11:43:57;;;;;;;1.33;0.90;;;25.00;51.70;;;;;;5034839;28;20107;-69
2023/12/04 11:46:24;;;;;;;1.42;0.80;;;25.00;51.80;;;;;;5037943;28;20025;-69
2023/12/04 11:48:54;;;;;;;0.95;0.82;;;24.90;51.70;;;;;;5039388;28;20576;-69
2023/12/04 11:51:38;;;;;;;0.80;0.75;;;25.00;52.30;;;;;;5039935;28;20055;-69
2023/12/04 11:54:08;;;;;;;1.02;0.80;;;24.90;51.80;;;;;;5038387;28;20552;-69
2023/12/04 11:56:33;;;;;;;0.93;0.80;;;24.90;51.80;;;;;;5038320;28;20049;-68
2023/12/04 11:59:07;;;;;;;0.73;0.70;;;24.90;51.90;;;;;;5038706;28;20033;-69
2023/12/04 12:01:39;;;;;;;1.25;0.90;;;24.90;52.10;;;;;;5040258;28;20013;-69
2023/12/04 12:04:09;;;;;;;0.98;0.80;;;24.80;52.30;;;;;;5036756;28;20033;-69
2023/12/04 12:06:35;;;;;;;1.08;0.90;;;24.80;52.20;;;;;;5037411;28;20370;-69
2023/12/04 12:09:01;;;;;;;0.80;0.80;;;24.80;52.10;;;;;;5037498;28;20091;-64
2023/12/04 12:11:27;;;;;;;0.80;0.80;;;24.80;52.20;;;;;;5036819;28;20028;-64
2023/12/04 12:13:53;;;;;;;1.00;0.90;;;24.80;52.30;;;;;;5037270;28;20031;-64
2023/12/04 12:16:19;;;;;;;1.50;1.05;;;24.80;52.30;;;;;;5039801;28;20121;-63
2023/12/04 12:18:45;;;;;;;2.60;1.70;;;24.80;51.50;;;;;;5037848;28;20112;-65
2023/12/04 12:21:11;;;;;;;2.60;1.80;;;24.80;48.20;;;;;;5035995;28;20038;-64
2023/12/04 12:23:37;;;;;;;3.30;1.85;;;24.70;47.10;;;;;;5039121;28;20032;-63
2023/12/04 12:26:03;;;;;;;2.20;1.60;;;24.70;46.50;;;;;;5037259;28;20095;-65
2023/12/04 12:28:29;;;;;;;2.63;1.90;;;24.60;46.20;;;;;;5036916;28;20385;-63
2023/12/04 12:30:55;;;;;;;2.90;1.88;;;24.50;46.10;;;;;;5039547;28;20017;-64
2023/12/04 12:33:22;;;;;;;2.22;1.73;;;24.50;45.90;;;;;;5039398;28;20473;-64
2023/12/04 12:35:48;;;;;;;2.85;1.75;;;24.40;45.80;;;;;;5038910;28;20017;-65
2023/12/04 12:38:14;;;;;;;2.72;1.60;;;24.30;45.80;;;;;;5040804;28;20036;-65
2023/12/04 12:40:40;;;;;;;2.38;1.48;;;24.30;46.20;;;;;;5037866;28;20412;-65
2023/12/04 12:43:07;;;;;;;2.70;1.50;;;24.20;46.60;;;;;;5038555;28;20033;-66